createdAt,value
2017-09-17T00:01:25.084Z,8.60
2017-09-17T00:03:52.644Z,8.53
2017-09-17T00:06:20.319Z,9.63
2017-09-17T00:08:47.915Z,10.60
2017-09-17T00:11:15.480Z,11.73
2017-09-17T00:13:43.868Z,10.70
2017-09-17T00:16:12.274Z,7.47
2017-09-17T00:18:39.827Z,12.03
2017-09-17T00:21:07.416Z,10.67
2017-09-17T00:23:34.975Z,9.60
2017-09-17T00:26:02.614Z,12.10
2017-09-17T00:28:30.179Z,9.03
2017-09-17T00:30:57.739Z,7.43
2017-09-17T00:33:25.328Z,10.50
2017-09-17T00:35:52.897Z,11.93
2017-09-17T00:38:20.488Z,9.73
2017-09-17T00:40:48.059Z,9.30
2017-09-17T00:43:15.659Z,15.03
2017-09-17T00:45:43.236Z,15.97
2017-09-17T00:48:10.888Z,16.77
2017-09-17T00:50:38.446Z,12.97
2017-09-17T00:53:06.035Z,13.77
2017-09-17T00:55:33.627Z,11.30
2017-09-17T00:58:01.235Z,10.53
2017-09-17T01:00:29.644Z,11.83
2017-09-17T01:02:57.212Z,10.63
2017-09-17T01:05:24.808Z,12.33
2017-09-17T01:07:52.411Z,9.20
2017-09-17T01:10:19.984Z,11.90
2017-09-17T01:12:47.564Z,9.93
2017-09-17T01:15:15.132Z,12.97
2017-09-17T01:17:42.775Z,7.90
2017-09-17T01:20:10.340Z,8.70
2017-09-17T01:22:37.923Z,9.73
2017-09-17T01:25:06.256Z,10.87
2017-09-17T01:27:33.916Z,8.47
2017-09-17T01:30:01.508Z,8.93
2017-09-17T01:32:29.071Z,8.27
2017-09-17T01:34:56.656Z,8.70
2017-09-17T01:37:24.976Z,8.03
2017-09-17T01:39:52.568Z,8.90
2017-09-17T01:42:20.127Z,7.77
2017-09-17T01:44:47.708Z,8.00
2017-09-17T01:47:15.263Z,9.70
2017-09-17T01:49:42.848Z,8.20
2017-09-17T01:52:10.444Z,9.23
2017-09-17T01:54:37.999Z,7.77
2017-09-17T01:57:05.587Z,8.40
2017-09-17T01:59:33.155Z,7.73
2017-09-17T02:02:00.764Z,10.93
2017-09-17T02:04:28.332Z,9.43
2017-09-17T02:06:55.891Z,17.93
2017-09-17T02:09:23.476Z,10.70
2017-09-17T02:11:51.043Z,9.00
2017-09-17T02:14:18.655Z,9.87
2017-09-17T02:16:46.217Z,7.07
2017-09-17T02:19:13.775Z,6.93
2017-09-17T02:21:41.367Z,6.63
2017-09-17T02:24:08.966Z,6.57
2017-09-17T02:26:37.332Z,8.30
2017-09-17T02:29:05.707Z,7.60
2017-09-17T02:31:34.045Z,7.03
2017-09-17T02:34:01.607Z,8.73
2017-09-17T02:36:29.370Z,7.27
2017-09-17T02:38:56.996Z,8.47
2017-09-17T02:41:24.564Z,7.53
2017-09-17T02:43:52.119Z,6.97
2017-09-17T02:46:19.714Z,7.90
2017-09-17T02:48:47.275Z,8.57
2017-09-17T02:51:14.874Z,9.13
2017-09-17T02:53:42.599Z,10.63
2017-09-17T02:56:10.314Z,13.17
2017-09-17T02:58:37.907Z,8.87
2017-09-17T03:01:05.469Z,6.27
2017-09-17T03:03:33.152Z,6.83
2017-09-17T03:06:01.484Z,9.60
2017-09-17T03:08:29.092Z,15.83
2017-09-17T03:10:57.423Z,7.83
2017-09-17T03:13:25.020Z,10.53
2017-09-17T03:15:52.611Z,12.13
2017-09-17T03:18:20.186Z,10.73
2017-09-17T03:20:47.791Z,13.80
2017-09-17T03:23:15.347Z,16.00
2017-09-17T03:25:43.092Z,16.33
2017-09-17T03:28:10.667Z,18.70
2017-09-17T03:30:38.277Z,14.90
2017-09-17T03:33:05.931Z,16.67
2017-09-17T03:35:33.544Z,25.03
2017-09-17T03:38:01.166Z,21.80
2017-09-17T03:40:28.727Z,20.00
2017-09-17T03:42:56.347Z,17.40
2017-09-17T03:45:24.696Z,24.57
2017-09-17T03:47:52.287Z,19.90
2017-09-17T03:50:19.851Z,27.40
2017-09-17T03:52:47.440Z,22.63
2017-09-17T03:55:15.030Z,18.67
2017-09-17T03:57:42.596Z,22.97
2017-09-17T04:00:10.195Z,14.07
2017-09-17T04:02:37.759Z,15.77
2017-09-17T04:05:05.347Z,19.13
2017-09-17T04:07:32.923Z,17.90
2017-09-17T04:10:00.527Z,18.30
2017-09-17T04:12:28.099Z,25.50
2017-09-17T04:14:55.658Z,22.63
2017-09-17T04:17:23.279Z,24.80
2017-09-17T04:19:51.608Z,22.73
2017-09-17T04:22:19.191Z,21.13
2017-09-17T04:24:46.767Z,21.27
2017-09-17T04:27:14.362Z,21.30
2017-09-17T04:29:41.927Z,21.90
2017-09-17T04:32:09.496Z,21.40
2017-09-17T04:34:37.091Z,21.80
2017-09-17T04:37:04.647Z,24.00
2017-09-17T04:39:32.231Z,23.37
2017-09-17T04:42:00.601Z,25.73
2017-09-17T04:44:29.134Z,25.07
2017-09-17T04:46:56.700Z,21.67
2017-09-17T04:49:24.277Z,28.37
2017-09-17T04:51:51.872Z,23.87
2017-09-17T04:54:20.374Z,20.90
2017-09-17T04:56:48.019Z,22.37
2017-09-17T04:59:15.592Z,21.87
2017-09-17T05:01:43.159Z,20.87
2017-09-17T05:04:10.776Z,18.60
2017-09-17T05:06:39.113Z,24.13
2017-09-17T05:09:06.715Z,17.10
2017-09-17T05:11:35.039Z,17.87
2017-09-17T05:14:02.604Z,20.93
2017-09-17T05:16:30.187Z,17.57
2017-09-17T05:18:57.759Z,19.30
2017-09-17T05:21:26.149Z,23.57
2017-09-17T05:23:54.487Z,20.00
2017-09-17T05:26:22.124Z,21.03
2017-09-17T05:28:49.728Z,19.90
2017-09-17T05:31:17.315Z,22.50
2017-09-17T05:33:44.895Z,24.70
2017-09-17T05:36:12.459Z,21.07
2017-09-17T05:38:40.047Z,15.80
2017-09-17T05:41:07.643Z,17.60
2017-09-17T05:43:36.152Z,17.70
2017-09-17T05:46:03.856Z,21.67
2017-09-17T05:48:31.416Z,21.50
2017-09-17T05:50:58.980Z,22.43
2017-09-17T05:53:27.504Z,23.47
2017-09-17T05:55:55.074Z,24.30
2017-09-17T05:58:22.678Z,24.77
2017-09-17T06:00:51.009Z,22.60
2017-09-17T06:03:18.599Z,23.10
2017-09-17T06:05:46.979Z,27.70
2017-09-17T06:08:14.543Z,24.10
2017-09-17T06:10:42.131Z,21.67
2017-09-17T06:13:10.463Z,19.90
2017-09-17T06:15:38.051Z,22.53
2017-09-17T06:18:06.375Z,19.40
2017-09-17T06:20:33.976Z,27.97
2017-09-17T06:23:01.566Z,25.60
2017-09-17T06:25:29.138Z,20.53
2017-09-17T06:27:56.695Z,18.20
2017-09-17T06:30:24.281Z,18.90
2017-09-17T06:32:51.846Z,21.07
2017-09-17T06:35:19.507Z,19.53
2017-09-17T06:37:47.073Z,14.70
2017-09-17T06:40:14.672Z,13.57
2017-09-17T06:42:43.002Z,11.97
2017-09-17T06:45:10.570Z,12.93
2017-09-17T06:47:38.295Z,10.03
2017-09-17T06:50:05.868Z,10.23
2017-09-17T06:52:33.453Z,11.07
2017-09-17T06:55:01.023Z,12.50
2017-09-17T06:57:28.639Z,13.33
2017-09-17T06:59:56.206Z,13.07
2017-09-17T07:02:23.771Z,17.10
2017-09-17T07:04:51.363Z,12.97
2017-09-17T07:07:19.688Z,15.67
2017-09-17T07:09:47.332Z,13.30
2017-09-17T07:12:14.915Z,12.87
2017-09-17T07:14:42.728Z,13.20
2017-09-17T07:17:11.238Z,15.00
2017-09-17T07:19:38.843Z,13.20
2017-09-17T07:22:06.435Z,13.67
2017-09-17T07:24:34.130Z,16.17
2017-09-17T07:27:01.723Z,11.23
2017-09-17T07:29:29.303Z,10.57
2017-09-17T07:31:57.673Z,13.20
2017-09-17T07:34:26.017Z,11.40
2017-09-17T07:36:53.582Z,11.10
2017-09-17T07:39:21.199Z,11.10
2017-09-17T07:41:48.764Z,13.23
2017-09-17T07:44:16.351Z,10.07
2017-09-17T07:46:43.931Z,10.70
2017-09-17T07:49:11.579Z,12.77
2017-09-17T07:51:39.151Z,10.87
2017-09-17T07:54:07.505Z,10.03
2017-09-17T07:56:35.087Z,15.30
2017-09-17T07:59:04.137Z,14.20
2017-09-17T08:01:31.720Z,11.20
2017-09-17T08:03:59.298Z,10.37
2017-09-17T08:06:27.686Z,10.00
2017-09-17T08:08:56.031Z,10.90
2017-09-17T08:11:23.634Z,10.90
2017-09-17T08:13:52.005Z,10.87
2017-09-17T08:16:20.332Z,10.20
2017-09-17T08:18:47.956Z,10.30
2017-09-17T08:21:15.550Z,9.43
2017-09-17T08:23:43.103Z,9.27
2017-09-17T08:26:10.713Z,10.13
2017-09-17T08:28:38.286Z,8.60
2017-09-17T08:31:06.660Z,8.57
2017-09-17T08:33:34.983Z,7.60
2017-09-17T08:36:02.592Z,9.77
2017-09-17T08:38:30.917Z,7.17
2017-09-17T08:40:58.614Z,7.63
2017-09-17T08:43:26.200Z,6.93
2017-09-17T08:45:53.788Z,7.37
2017-09-17T08:48:21.345Z,6.83
2017-09-17T08:50:48.912Z,8.47
2017-09-17T08:53:16.508Z,7.07
2017-09-17T08:55:44.139Z,6.33
2017-09-17T08:58:11.808Z,7.37
2017-09-17T09:00:39.396Z,6.13
2017-09-17T09:03:07.726Z,6.30
2017-09-17T09:05:35.426Z,6.30
2017-09-17T09:08:02.994Z,5.90
2017-09-17T09:10:31.325Z,6.10
2017-09-17T09:12:58.919Z,4.30
2017-09-17T09:15:26.488Z,5.03
2017-09-17T09:17:54.868Z,6.10
2017-09-17T09:20:23.270Z,4.43
2017-09-17T09:22:51.037Z,4.33
2017-09-17T09:25:18.683Z,3.33
2017-09-17T09:27:46.422Z,2.67
2017-09-17T09:30:13.983Z,2.73
2017-09-17T09:32:42.318Z,3.20
2017-09-17T09:35:09.910Z,1.70
2017-09-17T09:37:37.463Z,2.00
2017-09-17T09:40:06.559Z,2.40
2017-09-17T09:42:34.122Z,1.13
2017-09-17T09:45:01.719Z,1.57
2017-09-17T09:47:29.297Z,0.93
2017-09-17T09:49:56.967Z,1.10
2017-09-17T09:52:24.548Z,1.60
2017-09-17T09:54:52.267Z,1.70
2017-09-17T09:57:19.859Z,1.70
2017-09-17T09:59:47.431Z,3.93
2017-09-17T10:02:15.047Z,2.50
2017-09-17T10:04:42.623Z,1.63
2017-09-17T10:07:10.191Z,3.50
2017-09-17T10:09:37.779Z,1.30
2017-09-17T10:12:05.358Z,1.77
2017-09-17T10:14:33.788Z,1.37
2017-09-17T10:17:01.348Z,1.63
2017-09-17T10:19:28.945Z,1.53
2017-09-17T10:21:57.269Z,2.23
2017-09-17T10:24:24.868Z,3.87
2017-09-17T10:26:53.215Z,1.90
2017-09-17T10:29:20.779Z,2.23
2017-09-17T10:31:48.372Z,1.40
2017-09-17T10:34:16.851Z,1.87
2017-09-17T10:36:45.207Z,1.63
2017-09-17T10:39:12.775Z,2.00
2017-09-17T10:41:40.335Z,1.90
2017-09-17T10:44:07.940Z,2.33
2017-09-17T10:46:35.509Z,1.50
2017-09-17T10:49:03.124Z,2.20
2017-09-17T10:51:31.468Z,2.00
2017-09-17T10:53:59.099Z,2.50
2017-09-17T10:56:26.689Z,1.70
2017-09-17T10:58:55.012Z,2.10
2017-09-17T11:01:22.570Z,2.00
2017-09-17T11:03:50.163Z,1.80
2017-09-17T11:06:17.760Z,2.53
2017-09-17T11:08:46.111Z,1.93
2017-09-17T11:11:13.697Z,1.90
2017-09-17T11:13:41.259Z,1.77
2017-09-17T11:16:09.623Z,1.50
2017-09-17T11:18:37.191Z,2.60
2017-09-17T11:21:05.543Z,1.67
2017-09-17T11:23:33.139Z,1.63
2017-09-17T11:26:01.467Z,1.83
2017-09-17T11:28:29.064Z,2.10
2017-09-17T11:30:57.436Z,2.93
2017-09-17T11:33:24.996Z,1.50
2017-09-17T11:35:52.593Z,1.53
2017-09-17T11:38:20.156Z,2.47
2017-09-17T11:40:47.775Z,1.80
2017-09-17T11:43:16.096Z,2.00
2017-09-17T11:45:43.676Z,1.93
2017-09-17T11:48:11.272Z,2.03
2017-09-17T11:50:39.604Z,1.70
2017-09-17T11:53:07.188Z,1.23
2017-09-17T11:55:34.755Z,2.60
2017-09-17T11:58:02.369Z,2.20
2017-09-17T12:00:29.939Z,2.70
2017-09-17T12:02:57.496Z,1.53
2017-09-17T12:05:25.088Z,1.00
2017-09-17T12:07:54.167Z,1.17
2017-09-17T12:10:21.775Z,1.63
2017-09-17T12:12:49.335Z,1.00
2017-09-17T12:15:16.936Z,1.00
2017-09-17T12:17:44.495Z,1.13
2017-09-17T12:20:12.088Z,2.33
2017-09-17T12:22:40.614Z,1.10
2017-09-17T12:25:08.168Z,0.90
2017-09-17T12:27:35.792Z,0.90
2017-09-17T12:30:04.131Z,1.37
2017-09-17T12:32:31.752Z,0.80
2017-09-17T12:34:59.312Z,1.50
2017-09-17T12:37:26.884Z,2.70
2017-09-17T12:39:54.648Z,2.50
2017-09-17T12:42:22.219Z,1.40
2017-09-17T12:44:49.819Z,1.60
2017-09-17T12:47:18.159Z,0.90
2017-09-17T12:49:45.777Z,0.90
2017-09-17T12:52:13.339Z,0.90
2017-09-17T12:54:40.953Z,1.73
2017-09-17T12:57:09.324Z,1.00
2017-09-17T12:59:36.956Z,0.80
2017-09-17T13:02:04.526Z,1.00
2017-09-17T13:04:32.093Z,1.00
2017-09-17T13:06:59.708Z,1.00
2017-09-17T13:09:27.312Z,9.80
2017-09-17T13:11:54.886Z,8.93
2017-09-17T13:14:22.515Z,4.27
2017-09-17T13:16:50.094Z,1.00
2017-09-17T13:19:17.679Z,1.50
2017-09-17T13:21:46.024Z,1.43
2017-09-17T13:24:13.607Z,0.90
2017-09-17T13:26:41.209Z,0.90
2017-09-17T13:29:08.772Z,1.33
2017-09-17T13:31:36.338Z,1.17
2017-09-17T13:34:03.949Z,3.00
2017-09-17T13:36:31.538Z,1.00
2017-09-17T13:38:59.141Z,1.97
2017-09-17T13:41:26.736Z,0.97
2017-09-17T13:43:55.069Z,0.93
2017-09-17T13:46:22.691Z,0.90
2017-09-17T13:48:50.259Z,1.00
2017-09-17T13:51:17.884Z,2.40
2017-09-17T13:53:46.193Z,1.10
2017-09-17T13:56:13.785Z,1.00
2017-09-17T13:58:41.448Z,1.00
2017-09-17T14:01:10.933Z,1.30
2017-09-17T14:03:41.020Z,1.10
2017-09-17T14:06:13.751Z,0.80
2017-09-17T14:08:57.040Z,0.90
2017-09-17T14:11:24.612Z,0.90
2017-09-17T14:13:52.199Z,1.43
2017-09-17T14:16:19.797Z,1.10
2017-09-17T14:18:48.168Z,1.00
2017-09-17T14:21:16.504Z,0.93
2017-09-17T14:23:44.071Z,1.30
2017-09-17T14:26:12.440Z,1.33
2017-09-17T14:28:39.999Z,1.00
2017-09-17T14:31:07.619Z,1.00
2017-09-17T14:33:35.218Z,1.30
2017-09-17T14:36:02.828Z,0.93
2017-09-17T14:38:30.400Z,0.90
2017-09-17T14:40:58.012Z,1.10
2017-09-17T14:43:26.394Z,1.10
2017-09-17T14:45:53.964Z,1.83
2017-09-17T14:48:22.355Z,1.70
2017-09-17T14:50:50.702Z,1.00
2017-09-17T14:53:18.300Z,1.13
2017-09-17T14:55:45.856Z,1.27
2017-09-17T14:58:13.444Z,1.80
2017-09-17T15:00:41.031Z,1.37
2017-09-17T15:03:08.683Z,1.77
2017-09-17T15:05:36.242Z,1.50
2017-09-17T15:08:03.815Z,1.27
2017-09-17T15:10:31.498Z,1.30
2017-09-17T15:12:59.824Z,1.20
2017-09-17T15:15:27.461Z,1.33
2017-09-17T15:17:55.043Z,1.30
2017-09-17T15:20:22.606Z,1.60
2017-09-17T15:22:50.200Z,1.13
2017-09-17T15:25:18.548Z,1.10
2017-09-17T15:27:46.155Z,1.10
2017-09-17T15:30:13.708Z,1.20
2017-09-17T15:32:42.233Z,2.10
2017-09-17T15:35:09.792Z,3.37
2017-09-17T15:37:37.419Z,2.00
2017-09-17T15:40:04.986Z,2.77
2017-09-17T15:42:32.567Z,1.70
2017-09-17T15:45:00.184Z,1.80
2017-09-17T15:47:28.759Z,1.60
2017-09-17T15:49:57.126Z,2.00
2017-09-17T15:52:25.463Z,2.07
2017-09-17T15:54:53.067Z,1.80
2017-09-17T15:57:21.415Z,1.30
2017-09-17T15:59:48.980Z,4.53
2017-09-17T16:02:16.573Z,1.93
2017-09-17T16:04:44.906Z,2.53
2017-09-17T16:07:12.496Z,1.47
2017-09-17T16:09:40.826Z,1.43
2017-09-17T16:12:08.498Z,2.70
2017-09-17T16:14:36.078Z,3.00
2017-09-17T16:17:04.509Z,3.13
2017-09-17T16:19:32.143Z,2.37
2017-09-17T16:22:00.494Z,2.80
2017-09-17T16:24:29.619Z,2.97
2017-09-17T16:26:57.204Z,2.37
2017-09-17T16:29:24.872Z,3.37
2017-09-17T16:31:52.436Z,2.27
2017-09-17T16:34:20.012Z,1.90
2017-09-17T16:36:47.732Z,1.30
2017-09-17T16:39:15.295Z,2.70
2017-09-17T16:41:42.919Z,2.70
2017-09-17T16:44:10.548Z,2.30
2017-09-17T16:46:38.148Z,2.50
2017-09-17T16:49:06.498Z,2.10
2017-09-17T16:51:35.602Z,2.93
2017-09-17T16:54:03.207Z,2.13
2017-09-17T16:56:30.765Z,6.20
2017-09-17T16:58:58.370Z,2.33
2017-09-17T17:01:25.958Z,1.90
2017-09-17T17:03:54.394Z,3.13
2017-09-17T17:06:21.995Z,6.00
2017-09-17T17:08:49.639Z,4.83
2017-09-17T17:11:17.197Z,2.13
2017-09-17T17:13:45.696Z,1.90
2017-09-17T17:16:13.463Z,1.27
2017-09-17T17:18:41.069Z,1.50
2017-09-17T17:21:08.729Z,3.23
2017-09-17T17:23:36.287Z,2.30
2017-09-17T17:26:04.117Z,1.30
2017-09-17T17:28:31.694Z,1.27
2017-09-17T17:30:59.272Z,2.23
2017-09-17T17:33:27.024Z,2.00
2017-09-17T17:35:54.601Z,4.10
2017-09-17T17:38:23.158Z,2.10
2017-09-17T17:40:50.735Z,1.67
2017-09-17T17:43:18.567Z,1.70
2017-09-17T17:45:46.143Z,2.37
2017-09-17T17:48:13.868Z,2.17
2017-09-17T17:50:41.436Z,2.83
2017-09-17T17:53:09.214Z,2.77
2017-09-17T17:55:36.804Z,4.07
2017-09-17T17:58:04.539Z,4.33
2017-09-17T18:00:32.112Z,4.13
2017-09-17T18:02:59.683Z,1.90
2017-09-17T18:05:27.415Z,2.07
2017-09-17T18:07:54.984Z,2.00
2017-09-17T18:10:22.832Z,2.80
2017-09-17T18:12:50.418Z,2.50
2017-09-17T18:15:17.992Z,3.70
2017-09-17T18:17:45.651Z,6.20
2017-09-17T18:20:13.282Z,2.60
2017-09-17T18:22:41.040Z,6.37
2017-09-17T18:25:08.626Z,5.93
2017-09-17T18:27:36.366Z,3.50
2017-09-17T18:30:03.944Z,3.80
2017-09-17T18:32:31.526Z,3.50
2017-09-17T18:34:59.339Z,1.97
2017-09-17T18:37:26.911Z,6.73
2017-09-17T18:39:55.489Z,3.00
2017-09-17T18:42:23.061Z,2.67
2017-09-17T18:44:50.709Z,5.90
2017-09-17T18:47:18.476Z,7.07
2017-09-17T18:49:46.052Z,9.00
2017-09-17T18:52:13.788Z,5.30
2017-09-17T18:54:41.400Z,4.50
2017-09-17T18:57:09.922Z,4.30
2017-09-17T18:59:37.488Z,5.77
2017-09-17T19:02:05.264Z,5.50
2017-09-17T19:04:33.014Z,4.43
2017-09-17T19:07:00.592Z,1.90
2017-09-17T19:09:28.192Z,3.73
2017-09-17T19:11:56.729Z,3.87
2017-09-17T19:14:24.602Z,3.70
2017-09-17T19:16:52.171Z,4.50
2017-09-17T19:19:19.761Z,7.13
2017-09-17T19:21:47.512Z,6.47
2017-09-17T19:24:15.839Z,7.63
2017-09-17T19:26:43.595Z,9.67
2017-09-17T19:29:11.328Z,12.93
2017-09-17T19:31:38.906Z,13.43
2017-09-17T19:34:06.675Z,12.33
2017-09-17T19:36:34.276Z,11.33
2017-09-17T19:39:03.512Z,7.70
2017-09-17T19:41:31.112Z,7.50
2017-09-17T19:43:58.770Z,10.20
2017-09-17T19:46:26.530Z,5.30
2017-09-17T19:48:54.120Z,6.93
2017-09-17T19:51:22.543Z,5.67
2017-09-17T19:53:50.101Z,5.83
2017-09-17T19:56:17.736Z,3.57
2017-09-17T19:58:46.104Z,4.20
2017-09-17T20:01:14.452Z,5.30
2017-09-17T20:03:42.066Z,6.77
2017-09-17T20:06:09.644Z,8.37
2017-09-17T20:08:37.231Z,6.23
2017-09-17T20:11:04.799Z,7.67
2017-09-17T20:13:32.408Z,5.93
2017-09-17T20:15:59.980Z,5.20
2017-09-17T20:18:27.597Z,5.57
2017-09-17T20:20:55.933Z,9.20
2017-09-17T20:23:23.627Z,6.67
2017-09-17T20:25:51.204Z,4.10
2017-09-17T20:28:18.783Z,3.97
2017-09-17T20:30:46.387Z,4.13
2017-09-17T20:33:14.732Z,4.30
2017-09-17T20:35:42.347Z,8.83
2017-09-17T20:38:10.743Z,6.90
2017-09-17T20:40:38.313Z,5.07
2017-09-17T20:43:05.931Z,2.40
2017-09-17T20:45:34.292Z,6.10
2017-09-17T20:48:01.898Z,4.50
2017-09-17T20:50:29.668Z,2.50
2017-09-17T20:52:57.412Z,5.43
2017-09-17T20:55:25.742Z,4.50
2017-09-17T20:57:53.319Z,5.50
2017-09-17T21:00:20.903Z,7.30
2017-09-17T21:02:49.303Z,8.83
2017-09-17T21:05:16.932Z,7.40
2017-09-17T21:07:45.264Z,6.33
2017-09-17T21:10:12.855Z,9.23
2017-09-17T21:12:40.445Z,9.43
2017-09-17T21:15:08.063Z,7.70
2017-09-17T21:17:35.637Z,7.17
2017-09-17T21:20:03.224Z,6.67
2017-09-17T21:22:30.878Z,8.23
2017-09-17T21:24:58.563Z,3.03
2017-09-17T21:27:26.183Z,5.60
2017-09-17T21:29:54.515Z,2.53
2017-09-17T21:32:22.117Z,2.50
2017-09-17T21:34:49.696Z,3.90
2017-09-17T21:37:17.255Z,2.50
2017-09-17T21:39:44.849Z,2.83
2017-09-17T21:42:12.460Z,2.80
2017-09-17T21:44:40.880Z,2.23
2017-09-17T21:47:08.487Z,3.77
2017-09-17T21:49:36.054Z,3.13
2017-09-17T21:52:04.383Z,3.03
2017-09-17T21:54:31.973Z,3.57
2017-09-17T21:57:01.057Z,3.50
2017-09-17T21:59:28.655Z,3.70
2017-09-17T22:01:57.015Z,4.27
2017-09-17T22:04:25.371Z,3.50
2017-09-17T22:06:52.940Z,4.23
2017-09-17T22:09:20.563Z,3.90
2017-09-17T22:11:48.125Z,3.10
2017-09-17T22:14:15.687Z,3.13
2017-09-17T22:16:43.287Z,3.80
2017-09-17T22:19:11.667Z,4.33
2017-09-17T22:21:40.040Z,3.67
2017-09-17T22:24:08.388Z,7.37
2017-09-17T22:26:35.980Z,4.20
2017-09-17T22:29:04.314Z,4.40
2017-09-17T22:31:32.011Z,3.03
2017-09-17T22:34:00.349Z,2.80
2017-09-17T22:36:27.943Z,4.67
2017-09-17T22:38:55.539Z,2.93
2017-09-17T22:41:23.099Z,4.23
2017-09-17T22:43:50.679Z,3.47
2017-09-17T22:46:18.251Z,3.33
2017-09-17T22:48:45.836Z,6.23
2017-09-17T22:51:13.412Z,4.53
2017-09-17T22:53:41.019Z,5.33
2017-09-17T22:56:08.584Z,2.73
2017-09-17T22:58:36.148Z,2.67
2017-09-17T23:01:03.759Z,3.53
2017-09-17T23:03:31.319Z,3.33
2017-09-17T23:05:58.920Z,2.63
2017-09-17T23:08:26.487Z,2.80
2017-09-17T23:10:54.095Z,2.70
2017-09-17T23:13:21.658Z,3.73
2017-09-17T23:15:49.247Z,2.40
2017-09-17T23:18:16.810Z,2.23
2017-09-17T23:20:44.408Z,1.60
2017-09-17T23:23:12.738Z,3.30
2017-09-17T23:25:40.307Z,1.50
2017-09-17T23:28:07.898Z,1.20
2017-09-17T23:30:36.230Z,1.80
2017-09-17T23:33:03.819Z,1.40
2017-09-17T23:35:31.379Z,1.30
2017-09-17T23:37:58.963Z,2.03
2017-09-17T23:40:27.309Z,1.10
2017-09-17T23:42:54.903Z,1.60
2017-09-17T23:45:22.460Z,1.67
2017-09-17T23:47:50.784Z,1.63
2017-09-17T23:50:18.365Z,1.40
2017-09-17T23:52:45.928Z,1.20
2017-09-17T23:55:13.519Z,2.80
2017-09-17T23:57:41.079Z,1.97
